• Join FlightAware (Why Join?)
  • Login
  • US Flag 
01:53PM EDT


 

Airport Tracker/Info


-or-


 

Live Flight TrackerFlight Track Log ✈ TYR919 ✈ 20-Apr-2013 ✈ LOWW / VIE - LOWS / SZG

Flight Track Log - Related Links

Times and Time Zones

All times are in EDT time to prevent confusion due to time zone crossing. See the TYR919 flight status page for this flight to view local times or setup timezone preferences in your user account.

Time Position Orientation Groundspeed Altitude Reporting Facility
EDT Latitude Longitude Course Direction KTS MPH feet Rate Location/Type
03:55PM 48.0826 16.1981 264° West  Level Estimated
03:56PM 48.0730 16.0743 263° West  Level Estimated
03:57PM 48.0634 15.9505 263° West  Level Estimated
03:58PM 48.0536 15.8268 263° West  Level Estimated
03:59PM 48.0437 15.7031 263° West  Level Estimated
04:00PM 48.0337 15.5795 263° West  Level Estimated
04:01PM 48.0235 15.4560 263° West  Level Estimated
04:02PM 48.0132 15.3325 263° West  Level Estimated
04:03PM 48.0028 15.2090 263° West  Level Estimated
04:04PM 47.9922 15.0856 263° West  Level Estimated
04:05PM 47.9815 14.9622 263° West  Level Estimated
04:06PM 47.9707 14.8389 263° West  Level Estimated
04:07PM 47.9597 14.7157 262° West  Level Estimated
04:08PM 47.9486 14.5925 262° West  Level Estimated
04:09PM 47.9374 14.4693 262° West  Level Estimated
04:10PM 47.9260 14.3462 262° West  Level Estimated
04:11PM 47.9145 14.2232 262° West  Level Estimated
04:12PM 47.9029 14.1002 262° West  Level Estimated
04:13PM 47.8912 13.9773 262° West  Level Estimated
04:14PM 47.8793 13.8544 262° West  Level Estimated
04:15PM 47.8672 13.7316 262° West  Level Estimated
04:16PM 47.8551 13.6088 262° West  Level Estimated
04:17PM 47.8428 13.4861 262° West  Level Estimated
04:18PM 47.8304 13.3634 261° West  Level Estimated
04:19PM 47.8179 13.2408 261° West  Level Estimated
04:20PM 47.8052 13.1183 261° West  Level Estimated
04:21PM 47.7933 13.0043 261° West  Level Estimated
04:22PM 47.7933 13.0043 27° Northeast  Level Estimated
04:23PM 47.7933 13.0043 27° Northeast  Level Estimated
04:24PM 47.7933 13.0043 27° Northeast  Level Estimated
04:25PM 47.7933 13.0043 27° Northeast  Level Estimated
04:26PM 47.7933 13.0043 27° Northeast  Level Estimated
04:27PM 47.7933 13.0043 27° Northeast  Level Estimated
04:28PM 47.7933 13.0043 27° Northeast  Level Estimated